createdAt,value
2024-01-10T00:06:06.955Z,102886.38
2024-01-10T00:15:40.999Z,102880.04
2024-01-10T00:18:47.016Z,102883.27
2024-01-10T00:21:51.644Z,102870.86
2024-01-10T00:24:57.395Z,102863.11
2024-01-10T00:27:37.734Z,102855.84
2024-01-10T00:30:06.591Z,102852.33
2024-01-10T00:32:34.744Z,102850.09
2024-01-10T00:35:04.243Z,102847.30
2024-01-10T00:37:32.430Z,102850.30
2024-01-10T00:40:00.447Z,102851.08
2024-01-10T00:42:28.462Z,102852.05
2024-01-10T00:44:56.447Z,102847.05
2024-01-10T00:47:24.563Z,102849.15
2024-01-10T00:49:52.554Z,102845.58
2024-01-10T00:52:20.471Z,102847.25
2024-01-10T00:54:48.449Z,102846.36
2024-01-10T00:57:16.335Z,102850.41
2024-01-10T00:59:44.239Z,102851.26
2024-01-10T01:02:12.152Z,102852.20
2024-01-10T01:04:40.208Z,102845.72
2024-01-10T01:07:08.346Z,102844.73
2024-01-10T01:09:36.505Z,102851.02
2024-01-10T01:12:04.874Z,102851.05
2024-01-10T01:14:32.925Z,102855.25
2024-01-10T01:17:00.944Z,102854.76
2024-01-10T01:19:28.892Z,102853.36
2024-01-10T01:21:56.768Z,102850.13
2024-01-10T01:24:24.678Z,102852.65
2024-01-10T01:26:53.599Z,102856.54
2024-01-10T01:29:22.006Z,102857.66
2024-01-10T01:31:51.106Z,102864.37
2024-01-10T01:34:19.289Z,102861.43
2024-01-10T01:36:47.600Z,102859.54
2024-01-10T01:39:15.617Z,102859.05
2024-01-10T01:41:43.761Z,102859.52
2024-01-10T01:44:11.955Z,102853.37
2024-01-10T01:46:42.238Z,102852.70
2024-01-10T01:49:12.213Z,102852.73
2024-01-10T01:51:41.384Z,102856.13
2024-01-10T01:54:10.346Z,102858.10
2024-01-10T01:56:39.700Z,102852.77
2024-01-10T01:59:08.132Z,102850.79
2024-01-10T02:01:37.383Z,102849.27
2024-01-10T02:07:44.038Z,102851.04
2024-01-10T02:10:13.270Z,102850.19
2024-01-10T02:12:41.320Z,102850.36
2024-01-10T02:15:09.683Z,102851.93
2024-01-10T02:17:37.692Z,102851.95
2024-01-10T02:20:13.842Z,102843.80
2024-01-10T02:22:41.897Z,102846.61
2024-01-10T02:25:11.402Z,102846.29
2024-01-10T02:27:40.828Z,102840.50
2024-01-10T02:30:10.148Z,102840.60
2024-01-10T02:32:38.615Z,102839.52
2024-01-10T02:35:07.416Z,102835.77
2024-01-10T02:37:35.505Z,102832.47
2024-01-10T02:40:03.762Z,102829.77
2024-01-10T02:42:32.941Z,102830.52
2024-01-10T02:45:01.022Z,102826.66
2024-01-10T02:47:30.574Z,102822.73
2024-01-10T02:49:58.689Z,102819.83
2024-01-10T02:52:26.928Z,102814.72
2024-01-10T02:54:54.819Z,102813.34
2024-01-10T02:57:23.332Z,102812.34
2024-01-10T02:59:51.245Z,102807.45
2024-01-10T03:02:19.315Z,102804.65
2024-01-10T03:04:47.474Z,102801.20
2024-01-10T03:07:15.825Z,102797.29
2024-01-10T03:09:44.670Z,102797.29
2024-01-10T03:12:13.261Z,102797.88
2024-01-10T03:14:41.476Z,102801.64
2024-01-10T03:17:09.476Z,102804.10
2024-01-10T03:19:43.719Z,102806.16
2024-01-10T03:22:15.112Z,102808.20
2024-01-10T03:24:42.950Z,102803.73
2024-01-10T03:27:11.114Z,102804.83
2024-01-10T03:29:39.459Z,102804.34
2024-01-10T03:32:07.856Z,102803.75
2024-01-10T03:34:36.646Z,102800.64
2024-01-10T03:37:04.896Z,102796.23
2024-01-10T03:39:32.956Z,102796.08
2024-01-10T03:42:00.923Z,102801.50
2024-01-10T03:44:28.922Z,102798.44
2024-01-10T03:46:56.910Z,102799.19
2024-01-10T03:49:24.975Z,102797.53
2024-01-10T03:51:52.853Z,102797.98
2024-01-10T03:54:20.864Z,102798.30
2024-01-10T03:56:48.683Z,102794.53
2024-01-10T03:59:16.610Z,102791.14
2024-01-10T04:01:44.791Z,102784.27
2024-01-10T04:04:12.855Z,102783.08
2024-01-10T04:06:40.868Z,102784.73
2024-01-10T04:09:11.068Z,102781.59
2024-01-10T04:11:39.037Z,102778.96
2024-01-10T04:14:07.673Z,102785.89
2024-01-10T04:16:35.721Z,102788.05
2024-01-10T04:19:03.847Z,102793.29
2024-01-10T04:21:32.540Z,102793.72
2024-01-10T04:24:01.148Z,102798.30
2024-01-10T04:26:28.920Z,102794.92
2024-01-10T04:28:56.836Z,102794.06
2024-01-10T04:31:24.953Z,102794.55
2024-01-10T04:33:53.160Z,102795.77
2024-01-10T04:36:21.023Z,102793.54
2024-01-10T04:38:49.476Z,102789.77
2024-01-10T04:41:17.838Z,102788.38
2024-01-10T04:43:46.153Z,102785.98
2024-01-10T04:46:14.503Z,102787.45
2024-01-10T04:48:42.662Z,102788.73
2024-01-10T04:51:10.676Z,102788.63
2024-01-10T04:53:38.621Z,102791.93
2024-01-10T04:56:07.201Z,102785.83
2024-01-10T04:58:36.335Z,102785.70
2024-01-10T05:01:05.746Z,102781.52
2024-01-10T05:03:33.923Z,102779.70
2024-01-10T05:06:02.153Z,102780.68
2024-01-10T05:08:30.457Z,102779.38
2024-01-10T05:10:58.786Z,102778.14
2024-01-10T05:13:26.993Z,102777.47
2024-01-10T05:15:55.731Z,102778.52
2024-01-10T05:18:23.856Z,102776.70
2024-01-10T05:20:51.803Z,102769.13
2024-01-10T05:23:20.053Z,102768.55
2024-01-10T05:25:48.230Z,102769.73
2024-01-10T05:28:16.849Z,102771.46
2024-01-10T05:30:45.215Z,102767.14
2024-01-10T05:33:13.206Z,102762.63
2024-01-10T05:35:41.399Z,102764.36
2024-01-10T05:38:09.703Z,102763.61
2024-01-10T05:40:37.628Z,102762.35
2024-01-10T05:43:05.571Z,102760.52
2024-01-10T05:45:34.591Z,102757.59
2024-01-10T05:48:02.667Z,102757.34
2024-01-10T05:50:31.299Z,102751.27
2024-01-10T05:52:59.351Z,102745.00
2024-01-10T05:55:27.424Z,102751.77
2024-01-10T05:57:55.353Z,102750.35
2024-01-10T06:00:23.357Z,102747.07
2024-01-10T06:02:51.328Z,102753.03
2024-01-10T06:05:19.375Z,102750.27
2024-01-10T06:07:47.440Z,102754.73
2024-01-10T06:10:15.980Z,102752.91
2024-01-10T06:12:43.904Z,102746.79
2024-01-10T06:15:11.786Z,102748.36
2024-01-10T06:17:40.102Z,102750.30
2024-01-10T06:20:08.864Z,102748.98
2024-01-10T06:22:37.042Z,102749.91
2024-01-10T06:25:05.689Z,102751.34
2024-01-10T06:27:33.689Z,102752.55
2024-01-10T06:30:01.698Z,102750.85
2024-01-10T06:32:29.758Z,102743.57
2024-01-10T06:34:57.950Z,102740.15
2024-01-10T06:37:25.801Z,102738.10
2024-01-10T06:39:53.705Z,102738.02
2024-01-10T06:42:21.684Z,102740.73
2024-01-10T06:44:49.644Z,102738.94
2024-01-10T06:47:18.132Z,102741.55
2024-01-10T06:49:46.262Z,102738.25
2024-01-10T06:52:14.202Z,102740.30
2024-01-10T06:54:42.220Z,102742.14
2024-01-10T06:57:10.118Z,102741.40
2024-01-10T06:59:38.482Z,102740.63
2024-01-10T07:02:06.800Z,102740.90
2024-01-10T07:04:38.593Z,102740.50
2024-01-10T07:07:07.091Z,102745.77
2024-01-10T07:09:35.127Z,102748.21
2024-01-10T07:12:05.426Z,102747.74
2024-01-10T07:14:33.432Z,102745.95
2024-01-10T07:17:01.870Z,102733.57
2024-01-10T07:19:30.181Z,102736.98
2024-01-10T07:21:58.066Z,102737.96
2024-01-10T07:24:25.859Z,102739.75
2024-01-10T07:26:53.787Z,102735.05
2024-01-10T07:29:22.289Z,102738.80
2024-01-10T07:31:53.664Z,102735.71
2024-01-10T07:34:22.659Z,102732.45
2024-01-10T07:36:50.512Z,102726.72
2024-01-10T07:39:21.929Z,102728.33
2024-01-10T07:41:51.170Z,102727.36
2024-01-10T07:44:19.113Z,102727.02
2024-01-10T07:46:47.113Z,102725.59
2024-01-10T07:49:18.042Z,102722.42
2024-01-10T07:51:46.625Z,102717.55
2024-01-10T07:54:14.626Z,102718.27
2024-01-10T07:56:42.877Z,102717.52
2024-01-10T07:59:10.829Z,102718.05
2024-01-10T08:01:38.731Z,102723.29
2024-01-10T08:04:06.686Z,102724.50
2024-01-10T08:06:34.593Z,102733.57
2024-01-10T08:09:05.717Z,102730.61
2024-01-10T08:11:36.026Z,102729.23
2024-01-10T08:14:04.213Z,102736.54
2024-01-10T08:16:33.641Z,102742.16
2024-01-10T08:19:02.053Z,102743.98
2024-01-10T08:21:30.182Z,102742.02
2024-01-10T08:23:58.993Z,102743.65
2024-01-10T08:26:28.160Z,102743.70
2024-01-10T08:28:56.655Z,102746.71
2024-01-10T08:31:24.771Z,102750.28
2024-01-10T08:33:52.779Z,102753.54
2024-01-10T08:36:20.809Z,102753.97
2024-01-10T08:38:50.001Z,102762.43
2024-01-10T08:41:18.427Z,102762.02
2024-01-10T08:43:48.118Z,102767.34
2024-01-10T08:46:16.092Z,102767.63
2024-01-10T08:48:44.592Z,102765.16
2024-01-10T08:51:13.936Z,102764.98
2024-01-10T08:53:41.837Z,102770.28
2024-01-10T08:56:09.772Z,102770.38
2024-01-10T08:58:38.572Z,102769.11
2024-01-10T09:01:06.594Z,102768.02
2024-01-10T09:03:34.653Z,102766.06
2024-01-10T09:06:08.453Z,102760.83
2024-01-10T09:08:40.857Z,102763.38
2024-01-10T09:11:09.058Z,102760.71
2024-01-10T09:13:39.482Z,102762.38
2024-01-10T09:16:07.919Z,102759.83
2024-01-10T09:18:36.015Z,102759.71
2024-01-10T09:21:05.720Z,102755.56
2024-01-10T09:23:33.844Z,102751.08
2024-01-10T09:26:01.842Z,102751.09
2024-01-10T09:28:29.845Z,102753.02
2024-01-10T09:30:57.982Z,102751.11
2024-01-10T09:33:26.493Z,102746.42
2024-01-10T09:35:54.523Z,102744.19
2024-01-10T09:38:22.482Z,102747.85
2024-01-10T09:40:51.104Z,102737.92
2024-01-10T09:43:19.058Z,102739.14
2024-01-10T09:45:49.682Z,102738.95
2024-01-10T09:48:17.821Z,102733.35
2024-01-10T09:50:50.954Z,102730.35
2024-01-10T09:53:28.163Z,102728.58
2024-01-10T09:56:01.177Z,102726.45
2024-01-10T09:58:29.350Z,102727.11
2024-01-10T10:00:57.267Z,102722.00
2024-01-10T10:03:25.366Z,102720.91
2024-01-10T10:05:53.519Z,102722.06
2024-01-10T10:08:24.102Z,102721.17
2024-01-10T10:10:52.438Z,102722.04
2024-01-10T10:13:28.269Z,102721.88
2024-01-10T10:16:03.670Z,102720.81
2024-01-10T10:18:33.716Z,102716.07
2024-01-10T10:21:10.308Z,102712.85
2024-01-10T10:23:43.320Z,102715.19
2024-01-10T10:26:15.053Z,102711.61
2024-01-10T10:28:43.491Z,102710.92
2024-01-10T10:31:12.907Z,102699.63
2024-01-10T10:33:41.700Z,102699.52
2024-01-10T10:36:09.796Z,102697.64
2024-01-10T10:38:39.210Z,102698.80
2024-01-10T10:41:11.993Z,102697.73
2024-01-10T10:43:41.325Z,102698.73
2024-01-10T10:46:11.238Z,102701.89
2024-01-10T10:48:39.932Z,102694.89
2024-01-10T10:51:23.534Z,102692.25
2024-01-10T10:53:52.014Z,102686.17
2024-01-10T10:56:20.627Z,102677.33
2024-01-10T10:58:50.396Z,102672.25
2024-01-10T11:01:18.914Z,102666.61
2024-01-10T11:03:48.875Z,102657.63
2024-01-10T11:06:19.789Z,102650.65
2024-01-10T11:08:53.329Z,102652.14
2024-01-10T11:11:56.958Z,102655.05
2024-01-10T11:15:11.023Z,102662.14
2024-01-10T11:18:23.299Z,102658.08
2024-01-10T11:21:10.293Z,102656.96
2024-01-10T11:23:49.765Z,102659.32
2024-01-10T11:26:18.152Z,102659.85
2024-01-10T11:28:46.894Z,102649.92
2024-01-10T11:31:19.295Z,102645.02
2024-01-10T11:33:51.082Z,102639.75
2024-01-10T11:36:20.704Z,102637.98
2024-01-10T11:39:04.190Z,102635.66
2024-01-10T11:41:41.558Z,102639.89
2024-01-10T11:44:09.713Z,102634.70
2024-01-10T11:46:44.769Z,102632.68
2024-01-10T11:49:16.643Z,102641.05
2024-01-10T11:51:49.719Z,102645.25
2024-01-10T11:54:37.018Z,102642.94
2024-01-10T11:57:10.289Z,102631.66
2024-01-10T11:59:40.525Z,102630.58
2024-01-10T12:02:09.679Z,102631.86
2024-01-10T12:04:46.015Z,102627.05
2024-01-10T12:07:21.225Z,102621.16
2024-01-10T12:09:49.684Z,102616.18
2024-01-10T12:12:18.218Z,102606.75
2024-01-10T12:14:47.431Z,102606.40
2024-01-10T12:17:16.080Z,102604.78
2024-01-10T12:19:47.129Z,102604.56
2024-01-10T12:22:19.179Z,102599.24
2024-01-10T12:24:51.520Z,102595.05
2024-01-10T12:27:22.470Z,102598.19
2024-01-10T12:29:52.679Z,102598.73
2024-01-10T12:32:24.893Z,102590.64
2024-01-10T12:35:05.341Z,102582.40
2024-01-10T12:37:33.573Z,102578.73
2024-01-10T12:40:03.035Z,102579.98
2024-01-10T12:42:32.224Z,102582.54
2024-01-10T12:45:01.635Z,102583.73
2024-01-10T12:47:29.934Z,102583.50
2024-01-10T12:49:58.318Z,102579.61
2024-01-10T12:52:26.631Z,102579.58
2024-01-10T12:54:55.114Z,102577.83
2024-01-10T12:57:25.079Z,102574.13
2024-01-10T12:59:53.393Z,102570.86
2024-01-10T13:02:21.559Z,102569.81
2024-01-10T13:04:49.629Z,102570.16
2024-01-10T13:07:17.513Z,102570.70
2024-01-10T13:09:45.427Z,102572.06
2024-01-10T13:12:13.462Z,102570.45
2024-01-10T13:14:42.990Z,102563.41
2024-01-10T13:17:10.977Z,102564.79
2024-01-10T13:19:39.109Z,102562.80
2024-01-10T13:22:08.924Z,102564.48
2024-01-10T13:24:37.659Z,102566.02
2024-01-10T13:27:06.119Z,102562.80
2024-01-10T13:29:36.021Z,102562.42
2024-01-10T13:32:06.062Z,102558.85
2024-01-10T13:34:33.983Z,102556.05
2024-01-10T13:37:03.492Z,102551.45
2024-01-10T13:39:31.612Z,102550.95
2024-01-10T13:41:59.838Z,102549.70
2024-01-10T13:44:28.075Z,102547.44
2024-01-10T13:46:57.870Z,102546.20
2024-01-10T13:49:26.181Z,102549.19
2024-01-10T13:51:54.441Z,102546.95
2024-01-10T13:54:23.236Z,102547.73
2024-01-10T13:56:51.432Z,102549.35
2024-01-10T13:59:20.053Z,102549.02
2024-01-10T14:01:49.010Z,102543.60
2024-01-10T14:04:17.146Z,102542.96
2024-01-10T14:06:45.226Z,102540.75
2024-01-10T14:09:13.800Z,102542.95
2024-01-10T14:11:41.990Z,102539.55
2024-01-10T14:14:09.899Z,102540.11
2024-01-10T14:16:38.147Z,102538.61
2024-01-10T14:19:06.386Z,102540.80
2024-01-10T14:21:34.582Z,102535.28
2024-01-10T14:24:03.250Z,102531.71
2024-01-10T14:26:31.542Z,102525.30
2024-01-10T14:29:00.817Z,102517.17
2024-01-10T14:31:38.293Z,102518.66
2024-01-10T14:34:17.745Z,102517.61
2024-01-10T14:36:45.972Z,102516.02
2024-01-10T14:39:14.216Z,102517.06
2024-01-10T14:41:42.658Z,102508.32
2024-01-10T14:44:11.585Z,102504.27
2024-01-10T14:46:39.883Z,102500.78
2024-01-10T14:49:07.992Z,102496.92
2024-01-10T14:51:36.156Z,102498.44
2024-01-10T14:54:05.037Z,102506.58
2024-01-10T14:56:33.257Z,102510.85
2024-01-10T14:59:01.641Z,102516.88
2024-01-10T15:01:29.791Z,102520.48
2024-01-10T15:03:58.566Z,102521.88
2024-01-10T15:06:27.005Z,102523.98
2024-01-10T15:08:55.213Z,102523.42
2024-01-10T15:11:23.707Z,102528.27
2024-01-10T15:13:51.855Z,102527.88
2024-01-10T15:16:21.658Z,102530.61
2024-01-10T15:18:50.191Z,102535.95
2024-01-10T15:21:20.573Z,102544.66
2024-01-10T15:23:48.575Z,102545.64
2024-01-10T15:26:19.324Z,102540.98
2024-01-10T15:28:49.678Z,102536.67
2024-01-10T15:31:21.186Z,102536.36
2024-01-10T15:33:49.722Z,102537.98
2024-01-10T15:36:17.841Z,102538.98
2024-01-10T15:38:45.812Z,102535.20
2024-01-10T15:41:13.932Z,102539.65
2024-01-10T15:43:42.099Z,102533.25
2024-01-10T15:46:10.300Z,102531.23
2024-01-10T15:48:38.868Z,102532.21
2024-01-10T15:51:07.225Z,102526.21
2024-01-10T15:53:36.312Z,102520.59
2024-01-10T15:56:06.299Z,102521.95
2024-01-10T15:58:36.142Z,102526.25
2024-01-10T16:01:04.915Z,102531.91
2024-01-10T16:03:36.018Z,102528.84
2024-01-10T16:06:05.188Z,102528.92
2024-01-10T16:08:34.821Z,102529.88
2024-01-10T16:11:03.711Z,102527.50
2024-01-10T16:13:32.774Z,102526.85
2024-01-10T16:16:04.204Z,102523.04
2024-01-10T16:18:32.665Z,102523.26
2024-01-10T16:21:01.890Z,102521.89
2024-01-10T16:23:31.450Z,102516.18
2024-01-10T16:26:00.492Z,102513.80
2024-01-10T16:28:29.989Z,102514.92
2024-01-10T16:31:00.317Z,102508.90
2024-01-10T16:33:30.382Z,102507.91
2024-01-10T16:35:59.211Z,102504.60
2024-01-10T16:38:28.648Z,102494.70
2024-01-10T16:40:57.243Z,102491.08
2024-01-10T16:43:28.468Z,102491.60
2024-01-10T16:46:01.215Z,102490.37
2024-01-10T16:48:30.558Z,102489.67
2024-01-10T16:51:01.082Z,102485.54
2024-01-10T16:53:31.363Z,102483.52
2024-01-10T16:56:00.566Z,102475.71
2024-01-10T16:58:29.500Z,102474.85
2024-01-10T17:01:01.466Z,102474.52
2024-01-10T17:03:32.617Z,102466.56
2024-01-10T17:06:06.082Z,102465.54
2024-01-10T17:08:37.953Z,102463.95
2024-01-10T17:11:08.905Z,102466.02
2024-01-10T17:13:37.576Z,102467.91
2024-01-10T17:16:08.058Z,102466.39
2024-01-10T17:18:40.974Z,102461.89
2024-01-10T17:21:11.714Z,102453.70
2024-01-10T17:23:44.952Z,102454.24
2024-01-10T17:26:16.150Z,102450.28
2024-01-10T17:28:51.849Z,102451.73
2024-01-10T17:31:21.407Z,102444.45
2024-01-10T17:33:53.653Z,102440.45
2024-01-10T17:36:24.982Z,102439.08
2024-01-10T17:39:00.026Z,102437.88
2024-01-10T17:41:30.616Z,102440.48
2024-01-10T17:44:01.259Z,102437.04
2024-01-10T17:46:37.690Z,102441.96
2024-01-10T17:49:12.020Z,102439.61
2024-01-10T17:51:42.281Z,102435.14
2024-01-10T17:54:13.805Z,102433.63
2024-01-10T17:56:44.940Z,102433.30
2024-01-10T17:59:17.329Z,102439.73
2024-01-10T18:01:51.497Z,102440.42
2024-01-10T18:04:21.096Z,102440.60
2024-01-10T18:06:52.249Z,102435.20
2024-01-10T18:09:29.201Z,102433.80
2024-01-10T18:12:02.313Z,102431.55
2024-01-10T18:14:40.737Z,102434.83
2024-01-10T18:17:15.441Z,102439.52
2024-01-10T18:19:46.693Z,102436.59
2024-01-10T18:22:21.298Z,102432.61
2024-01-10T18:24:52.684Z,102436.29
2024-01-10T18:27:21.807Z,102435.25
2024-01-10T18:29:54.311Z,102437.68
2024-01-10T18:32:29.359Z,102431.47
2024-01-10T18:35:03.423Z,102431.87
2024-01-10T18:37:37.705Z,102427.02
2024-01-10T18:41:05.492Z,102420.24
2024-01-10T18:43:51.313Z,102423.89
2024-01-10T18:46:41.049Z,102422.33
2024-01-10T18:49:30.850Z,102425.29
2024-01-10T18:52:21.635Z,102419.75
2024-01-10T18:54:59.886Z,102419.59
2024-01-10T18:57:40.059Z,102420.46
2024-01-10T19:00:27.084Z,102425.84
2024-01-10T19:03:13.918Z,102434.55
2024-01-10T19:05:56.957Z,102430.36
2024-01-10T19:08:43.508Z,102433.14
2024-01-10T19:11:27.070Z,102439.56
2024-01-10T19:14:15.594Z,102442.70
2024-01-10T19:16:53.865Z,102441.48
2024-01-10T19:19:32.013Z,102441.30
2024-01-10T19:22:24.042Z,102442.70
2024-01-10T19:25:06.000Z,102443.92
2024-01-10T19:27:48.627Z,102444.61
2024-01-10T19:30:38.317Z,102443.22
2024-01-10T19:33:17.283Z,102447.22
2024-01-10T19:36:03.404Z,102447.92
2024-01-10T19:38:42.276Z,102447.04
2024-01-10T19:41:29.647Z,102443.75
2024-01-10T19:44:06.845Z,102446.35
2024-01-10T19:46:49.928Z,102444.42
2024-01-10T19:49:35.906Z,102445.83
2024-01-10T19:52:18.922Z,102443.57
2024-01-10T19:55:09.809Z,102448.60
2024-01-10T19:57:51.839Z,102449.13
2024-01-10T20:00:29.688Z,102452.60
2024-01-10T20:03:10.587Z,102450.34
2024-01-10T20:05:52.040Z,102439.58
2024-01-10T20:08:31.590Z,102437.31
2024-01-10T20:11:18.662Z,102434.70
2024-01-10T20:13:56.045Z,102431.58
2024-01-10T20:16:37.778Z,102425.86
2024-01-10T20:19:20.081Z,102422.89
2024-01-10T20:21:57.685Z,102426.02
2024-01-10T20:24:40.116Z,102428.27
2024-01-10T20:27:23.974Z,102426.70
2024-01-10T20:30:05.822Z,102423.05
2024-01-10T20:33:00.145Z,102413.00
2024-01-10T20:35:38.962Z,102411.77
2024-01-10T20:38:20.378Z,102411.24
2024-01-10T20:40:55.804Z,102409.33
2024-01-10T20:43:30.266Z,102409.52
2024-01-10T20:46:04.262Z,102408.13
2024-01-10T20:48:38.446Z,102399.09
2024-01-10T20:51:21.604Z,102399.62
2024-01-10T20:54:06.534Z,102404.14
2024-01-10T20:56:39.488Z,102405.52
2024-01-10T20:59:12.150Z,102405.17
2024-01-10T21:01:44.970Z,102407.44
2024-01-10T21:04:17.365Z,102408.83
2024-01-10T21:07:07.858Z,102408.30
2024-01-10T21:09:45.903Z,102401.34
2024-01-10T21:12:18.456Z,102398.23
2024-01-10T21:14:52.247Z,102397.02
2024-01-10T21:17:26.708Z,102393.55
2024-01-10T21:19:59.512Z,102394.05
2024-01-10T21:22:31.877Z,102397.53
2024-01-10T21:25:05.002Z,102404.81
2024-01-10T21:27:37.351Z,102400.48
2024-01-10T21:30:11.803Z,102400.48
2024-01-10T21:32:43.811Z,102392.50
2024-01-10T21:35:16.233Z,102389.72
2024-01-10T21:37:48.983Z,102394.23
2024-01-10T21:40:21.646Z,102391.43
2024-01-10T21:42:53.637Z,102384.31
2024-01-10T21:45:26.082Z,102378.05
2024-01-10T21:47:58.405Z,102370.25
2024-01-10T21:50:30.532Z,102363.13
2024-01-10T21:53:03.030Z,102359.66
2024-01-10T21:55:36.189Z,102358.45
2024-01-10T21:58:08.288Z,102360.17
2024-01-10T22:00:40.155Z,102355.66
2024-01-10T22:03:21.374Z,102350.11
2024-01-10T22:06:00.452Z,102351.13
2024-01-10T22:08:33.087Z,102348.35
2024-01-10T22:11:05.154Z,102342.81
2024-01-10T22:13:37.220Z,102329.27
2024-01-10T22:16:09.850Z,102337.59
2024-01-10T22:18:42.164Z,102350.27
2024-01-10T22:21:13.956Z,102347.14
2024-01-10T22:23:46.133Z,102339.16
2024-01-10T22:26:18.201Z,102335.70
2024-01-10T22:28:50.107Z,102333.11
2024-01-10T22:31:22.029Z,102343.86
2024-01-10T22:33:54.172Z,102356.02
2024-01-10T22:36:26.651Z,102351.67
2024-01-10T22:38:58.520Z,102344.38
2024-01-10T22:41:30.493Z,102346.48
2024-01-10T22:44:02.584Z,102341.10
2024-01-10T22:46:34.531Z,102354.63
2024-01-10T22:49:06.436Z,102358.96
2024-01-10T22:51:38.536Z,102346.64
2024-01-10T22:54:11.486Z,102344.38
2024-01-10T22:56:44.077Z,102348.55
2024-01-10T22:59:15.996Z,102344.75
2024-01-10T23:01:47.805Z,102339.71
2024-01-10T23:04:19.576Z,102337.29
2024-01-10T23:06:51.330Z,102333.98
2024-01-10T23:09:23.187Z,102335.38
2024-01-10T23:11:55.910Z,102335.55
2024-01-10T23:14:27.886Z,102335.38
2024-01-10T23:16:59.739Z,102343.36
2024-01-10T23:19:31.829Z,102338.14
2024-01-10T23:22:03.683Z,102326.86
2024-01-10T23:24:35.756Z,102317.98
2024-01-10T23:27:08.294Z,102312.60
2024-01-10T23:29:41.588Z,102307.20
2024-01-10T23:32:13.483Z,102293.80
2024-01-10T23:34:48.446Z,102291.55
2024-01-10T23:37:20.659Z,102279.75
2024-01-10T23:39:52.617Z,102264.62
2024-01-10T23:42:24.714Z,102262.71
2024-01-10T23:44:57.480Z,102252.98
2024-01-10T23:47:29.535Z,102247.92
2024-01-10T23:50:01.605Z,102242.71
2024-01-10T23:52:33.874Z,102232.97
2024-01-10T23:55:06.548Z,102235.58
2024-01-10T23:57:38.424Z,102242.69
